sensor_id;sensor_type;location;lat;lon;timestamp;P1;durP1;ratioP1;P2;durP2;ratioP2
11761;SDS011;5938;47.098;15.474;2023-05-20T00:01:23;11.07;;;10.00;;
11761;SDS011;5938;47.098;15.474;2023-05-20T00:05:27;10.20;;;9.20;;
11761;SDS011;5938;47.098;15.474;2023-05-20T00:09:31;9.70;;;8.70;;
11761;SDS011;5938;47.098;15.474;2023-05-20T00:13:36;12.40;;;9.70;;
11761;SDS011;5938;47.098;15.474;2023-05-20T00:17:40;10.63;;;9.63;;
11761;SDS011;5938;47.098;15.474;2023-05-20T00:21:43;10.80;;;9.70;;
11761;SDS011;5938;47.098;15.474;2023-05-20T00:25:48;11.67;;;10.57;;
11761;SDS011;5938;47.098;15.474;2023-05-20T00:29:53;14.70;;;10.87;;
11761;SDS011;5938;47.098;15.474;2023-05-20T00:33:57;11.60;;;10.43;;
11761;SDS011;5938;47.098;15.474;2023-05-20T00:38:00;12.30;;;11.00;;
11761;SDS011;5938;47.098;15.474;2023-05-20T00:42:04;12.50;;;11.30;;
11761;SDS011;5938;47.098;15.474;2023-05-20T00:46:09;12.00;;;10.80;;
11761;SDS011;5938;47.098;15.474;2023-05-20T00:50:13;10.47;;;9.47;;
11761;SDS011;5938;47.098;15.474;2023-05-20T00:54:17;10.07;;;9.07;;
11761;SDS011;5938;47.098;15.474;2023-05-20T00:58:21;12.73;;;9.87;;
11761;SDS011;5938;47.098;15.474;2023-05-20T01:02:26;10.93;;;9.93;;
11761;SDS011;5938;47.098;15.474;2023-05-20T01:06:30;10.87;;;9.63;;
11761;SDS011;5938;47.098;15.474;2023-05-20T01:10:35;11.33;;;9.40;;
11761;SDS011;5938;47.098;15.474;2023-05-20T01:14:45;11.57;;;10.40;;
11761;SDS011;5938;47.098;15.474;2023-05-20T01:18:54;11.70;;;10.50;;
11761;SDS011;5938;47.098;15.474;2023-05-20T01:23:01;10.40;;;9.50;;
11761;SDS011;5938;47.098;15.474;2023-05-20T01:27:04;10.80;;;9.70;;
11761;SDS011;5938;47.098;15.474;2023-05-20T01:31:15;11.20;;;10.10;;
11761;SDS011;5938;47.098;15.474;2023-05-20T01:35:24;11.77;;;10.67;;
11761;SDS011;5938;47.098;15.474;2023-05-20T01:39:31;13.90;;;12.17;;
11761;SDS011;5938;47.098;15.474;2023-05-20T01:43:38;12.77;;;11.23;;
11761;SDS011;5938;47.098;15.474;2023-05-20T01:47:43;12.30;;;10.90;;
11761;SDS011;5938;47.098;15.474;2023-05-20T01:51:47;13.70;;;11.67;;
11761;SDS011;5938;47.098;15.474;2023-05-20T01:55:52;11.87;;;10.70;;
11761;SDS011;5938;47.098;15.474;2023-05-20T01:59:56;12.27;;;11.07;;
11761;SDS011;5938;47.098;15.474;2023-05-20T02:03:59;11.53;;;10.37;;
11761;SDS011;5938;47.098;15.474;2023-05-20T02:08:03;11.97;;;10.63;;
11761;SDS011;5938;47.098;15.474;2023-05-20T02:12:09;11.47;;;10.27;;
11761;SDS011;5938;47.098;15.474;2023-05-20T02:16:17;14.33;;;11.40;;
11761;SDS011;5938;47.098;15.474;2023-05-20T02:20:20;13.07;;;11.50;;
11761;SDS011;5938;47.098;15.474;2023-05-20T02:24:24;10.83;;;9.63;;
11761;SDS011;5938;47.098;15.474;2023-05-20T02:28:30;11.77;;;10.67;;
11761;SDS011;5938;47.098;15.474;2023-05-20T02:32:34;15.13;;;11.43;;
11761;SDS011;5938;47.098;15.474;2023-05-20T02:36:38;12.47;;;10.60;;
11761;SDS011;5938;47.098;15.474;2023-05-20T02:40:43;11.67;;;10.57;;
11761;SDS011;5938;47.098;15.474;2023-05-20T02:44:48;11.90;;;10.70;;
11761;SDS011;5938;47.098;15.474;2023-05-20T02:48:53;13.77;;;11.90;;
11761;SDS011;5938;47.098;15.474;2023-05-20T02:52:57;15.93;;;12.53;;
11761;SDS011;5938;47.098;15.474;2023-05-20T02:57:00;13.43;;;12.10;;
11761;SDS011;5938;47.098;15.474;2023-05-20T03:01:06;12.97;;;10.80;;
11761;SDS011;5938;47.098;15.474;2023-05-20T03:05:09;12.47;;;11.17;;
11761;SDS011;5938;47.098;15.474;2023-05-20T03:09:13;13.50;;;12.20;;
11761;SDS011;5938;47.098;15.474;2023-05-20T03:13:16;15.10;;;13.47;;
11761;SDS011;5938;47.098;15.474;2023-05-20T03:17:21;14.30;;;12.90;;
11761;SDS011;5938;47.098;15.474;2023-05-20T03:21:25;15.20;;;13.60;;
11761;SDS011;5938;47.098;15.474;2023-05-20T03:25:30;12.63;;;11.37;;
11761;SDS011;5938;47.098;15.474;2023-05-20T03:29:34;12.97;;;11.83;;
11761;SDS011;5938;47.098;15.474;2023-05-20T03:33:39;11.63;;;10.63;;
11761;SDS011;5938;47.098;15.474;2023-05-20T03:37:43;13.33;;;12.03;;
11761;SDS011;5938;47.098;15.474;2023-05-20T03:41:46;13.53;;;12.30;;
11761;SDS011;5938;47.098;15.474;2023-05-20T03:45:51;12.57;;;11.20;;
11761;SDS011;5938;47.098;15.474;2023-05-20T03:49:59;19.97;;;13.60;;
11761;SDS011;5938;47.098;15.474;2023-05-20T03:59:37;17.10;;;14.20;;
11761;SDS011;5938;47.098;15.474;2023-05-20T04:03:50;19.23;;;15.57;;
11761;SDS011;5938;47.098;15.474;2023-05-20T04:07:55;14.30;;;10.90;;
11761;SDS011;5938;47.098;15.474;2023-05-20T04:12:00;15.33;;;13.73;;
11761;SDS011;5938;47.098;15.474;2023-05-20T04:16:04;16.03;;;13.70;;
11761;SDS011;5938;47.098;15.474;2023-05-20T04:20:09;14.20;;;12.80;;
11761;SDS011;5938;47.098;15.474;2023-05-20T04:24:14;15.43;;;13.83;;
11761;SDS011;5938;47.098;15.474;2023-05-20T04:28:18;14.10;;;12.70;;
11761;SDS011;5938;47.098;15.474;2023-05-20T04:32:24;12.67;;;11.47;;
11761;SDS011;5938;47.098;15.474;2023-05-20T04:36:29;13.40;;;12.10;;
11761;SDS011;5938;47.098;15.474;2023-05-20T04:40:34;13.47;;;12.20;;
11761;SDS011;5938;47.098;15.474;2023-05-20T04:44:38;12.47;;;11.27;;
11761;SDS011;5938;47.098;15.474;2023-05-20T04:48:43;12.80;;;11.50;;
11761;SDS011;5938;47.098;15.474;2023-05-20T04:52:48;11.47;;;10.40;;
11761;SDS011;5938;47.098;15.474;2023-05-20T04:56:53;13.30;;;12.00;;
11761;SDS011;5938;47.098;15.474;2023-05-20T05:00:57;12.60;;;11.37;;
11761;SDS011;5938;47.098;15.474;2023-05-20T05:05:03;13.33;;;11.90;;
11761;SDS011;5938;47.098;15.474;2023-05-20T05:14:33;11.67;;;10.43;;
11761;SDS011;5938;47.098;15.474;2023-05-20T05:18:44;11.43;;;10.30;;
11761;SDS011;5938;47.098;15.474;2023-05-20T05:23:12;10.40;;;9.43;;
11761;SDS011;5938;47.098;15.474;2023-05-20T05:27:16;10.60;;;9.70;;
11761;SDS011;5938;47.098;15.474;2023-05-20T05:31:21;10.90;;;9.80;;
11761;SDS011;5938;47.098;15.474;2023-05-20T05:35:25;10.13;;;9.10;;
11761;SDS011;5938;47.098;15.474;2023-05-20T05:39:28;8.73;;;7.90;;
11761;SDS011;5938;47.098;15.474;2023-05-20T05:43:32;11.47;;;10.47;;
11761;SDS011;5938;47.098;15.474;2023-05-20T05:51:59;10.60;;;9.23;;
11761;SDS011;5938;47.098;15.474;2023-05-20T05:56:03;9.27;;;8.57;;
11761;SDS011;5938;47.098;15.474;2023-05-20T06:00:07;10.53;;;9.67;;
11761;SDS011;5938;47.098;15.474;2023-05-20T06:04:13;11.40;;;10.20;;
11761;SDS011;5938;47.098;15.474;2023-05-20T06:08:16;9.13;;;8.23;;
11761;SDS011;5938;47.098;15.474;2023-05-20T06:12:20;8.17;;;7.43;;
11761;SDS011;5938;47.098;15.474;2023-05-20T06:16:24;8.83;;;8.03;;
11761;SDS011;5938;47.098;15.474;2023-05-20T06:20:32;8.73;;;7.90;;
11761;SDS011;5938;47.098;15.474;2023-05-20T06:24:49;9.67;;;8.13;;
11761;SDS011;5938;47.098;15.474;2023-05-20T06:28:53;7.87;;;7.17;;
11761;SDS011;5938;47.098;15.474;2023-05-20T06:32:57;9.43;;;8.53;;
11761;SDS011;5938;47.098;15.474;2023-05-20T06:37:02;10.00;;;9.10;;
11761;SDS011;5938;47.098;15.474;2023-05-20T06:41:06;10.50;;;9.50;;
11761;SDS011;5938;47.098;15.474;2023-05-20T06:45:10;9.83;;;8.83;;
11761;SDS011;5938;47.098;15.474;2023-05-20T06:49:14;9.10;;;8.00;;
11761;SDS011;5938;47.098;15.474;2023-05-20T06:53:19;8.40;;;7.80;;
11761;SDS011;5938;47.098;15.474;2023-05-20T06:57:23;8.57;;;7.87;;
11761;SDS011;5938;47.098;15.474;2023-05-20T07:01:26;7.73;;;7.13;;
11761;SDS011;5938;47.098;15.474;2023-05-20T07:05:30;9.20;;;8.30;;
11761;SDS011;5938;47.098;15.474;2023-05-20T07:09:35;9.10;;;8.30;;
11761;SDS011;5938;47.098;15.474;2023-05-20T07:13:39;8.60;;;7.90;;
11761;SDS011;5938;47.098;15.474;2023-05-20T07:17:42;7.90;;;7.30;;
11761;SDS011;5938;47.098;15.474;2023-05-20T07:21:46;9.23;;;8.07;;
11761;SDS011;5938;47.098;15.474;2023-05-20T07:25:52;8.30;;;7.40;;
11761;SDS011;5938;47.098;15.474;2023-05-20T07:29:55;8.20;;;6.57;;
11761;SDS011;5938;47.098;15.474;2023-05-20T07:33:59;9.13;;;7.13;;
11761;SDS011;5938;47.098;15.474;2023-05-20T07:38:03;8.40;;;7.60;;
11761;SDS011;5938;47.098;15.474;2023-05-20T07:42:08;6.87;;;6.37;;
11761;SDS011;5938;47.098;15.474;2023-05-20T07:46:11;7.57;;;6.97;;
11761;SDS011;5938;47.098;15.474;2023-05-20T07:50:20;6.60;;;6.00;;
11761;SDS011;5938;47.098;15.474;2023-05-20T07:54:23;7.47;;;6.90;;
11761;SDS011;5938;47.098;15.474;2023-05-20T07:58:29;6.80;;;6.20;;
11761;SDS011;5938;47.098;15.474;2023-05-20T08:02:34;7.37;;;6.67;;
11761;SDS011;5938;47.098;15.474;2023-05-20T08:06:38;6.53;;;5.93;;
11761;SDS011;5938;47.098;15.474;2023-05-20T08:10:42;10.00;;;7.13;;
11761;SDS011;5938;47.098;15.474;2023-05-20T08:14:47;7.47;;;6.77;;
11761;SDS011;5938;47.098;15.474;2023-05-20T08:18:51;8.00;;;7.20;;
11761;SDS011;5938;47.098;15.474;2023-05-20T08:22:54;8.07;;;7.37;;
11761;SDS011;5938;47.098;15.474;2023-05-20T08:26:58;7.93;;;7.27;;
11761;SDS011;5938;47.098;15.474;2023-05-20T08:31:03;7.73;;;7.13;;
11761;SDS011;5938;47.098;15.474;2023-05-20T08:35:07;7.83;;;7.03;;
11761;SDS011;5938;47.098;15.474;2023-05-20T08:39:11;9.40;;;8.30;;
11761;SDS011;5938;47.098;15.474;2023-05-20T08:43:14;8.10;;;6.67;;
11761;SDS011;5938;47.098;15.474;2023-05-20T08:47:20;8.43;;;7.73;;
11761;SDS011;5938;47.098;15.474;2023-05-20T08:51:24;8.80;;;7.90;;
11761;SDS011;5938;47.098;15.474;2023-05-20T08:55:29;7.50;;;6.90;;
11761;SDS011;5938;47.098;15.474;2023-05-20T08:59:40;7.83;;;7.13;;
11761;SDS011;5938;47.098;15.474;2023-05-20T09:03:46;8.97;;;8.00;;
11761;SDS011;5938;47.098;15.474;2023-05-20T09:07:49;8.20;;;7.47;;
11761;SDS011;5938;47.098;15.474;2023-05-20T09:11:53;8.63;;;7.63;;
11761;SDS011;5938;47.098;15.474;2023-05-20T09:15:58;8.20;;;7.50;;
11761;SDS011;5938;47.098;15.474;2023-05-20T09:20:06;7.93;;;6.87;;
11761;SDS011;5938;47.098;15.474;2023-05-20T09:24:11;7.67;;;6.97;;
11761;SDS011;5938;47.098;15.474;2023-05-20T09:28:15;8.67;;;7.87;;
11761;SDS011;5938;47.098;15.474;2023-05-20T09:32:19;7.23;;;6.53;;
11761;SDS011;5938;47.098;15.474;2023-05-20T09:36:27;7.60;;;7.00;;
11761;SDS011;5938;47.098;15.474;2023-05-20T09:40:32;7.53;;;6.80;;
11761;SDS011;5938;47.098;15.474;2023-05-20T09:44:40;7.50;;;6.93;;
11761;SDS011;5938;47.098;15.474;2023-05-20T09:48:46;10.00;;;7.40;;
11761;SDS011;5938;47.098;15.474;2023-05-20T09:52:52;7.67;;;6.97;;
11761;SDS011;5938;47.098;15.474;2023-05-20T09:56:57;7.87;;;7.20;;
11761;SDS011;5938;47.098;15.474;2023-05-20T10:01:02;7.23;;;6.63;;
11761;SDS011;5938;47.098;15.474;2023-05-20T10:05:06;7.53;;;7.00;;
11761;SDS011;5938;47.098;15.474;2023-05-20T10:09:20;8.73;;;7.33;;
11761;SDS011;5938;47.098;15.474;2023-05-20T10:13:37;7.73;;;7.03;;
11761;SDS011;5938;47.098;15.474;2023-05-20T10:17:52;7.33;;;6.73;;
11761;SDS011;5938;47.098;15.474;2023-05-20T10:22:10;6.43;;;5.87;;
11761;SDS011;5938;47.098;15.474;2023-05-20T10:26:16;7.93;;;6.40;;
11761;SDS011;5938;47.098;15.474;2023-05-20T10:30:20;7.57;;;6.97;;
11761;SDS011;5938;47.098;15.474;2023-05-20T10:34:24;7.00;;;6.40;;
11761;SDS011;5938;47.098;15.474;2023-05-20T10:38:27;8.40;;;7.60;;
11761;SDS011;5938;47.098;15.474;2023-05-20T10:42:32;7.43;;;6.83;;
11761;SDS011;5938;47.098;15.474;2023-05-20T10:46:36;7.60;;;6.90;;
11761;SDS011;5938;47.098;15.474;2023-05-20T10:51:01;7.33;;;6.63;;
11761;SDS011;5938;47.098;15.474;2023-05-20T10:55:05;8.30;;;7.60;;
11761;SDS011;5938;47.098;15.474;2023-05-20T10:59:21;6.30;;;5.90;;
11761;SDS011;5938;47.098;15.474;2023-05-20T11:03:25;7.43;;;6.90;;
11761;SDS011;5938;47.098;15.474;2023-05-20T11:07:31;7.03;;;6.43;;
11761;SDS011;5938;47.098;15.474;2023-05-20T11:11:35;7.73;;;7.10;;
11761;SDS011;5938;47.098;15.474;2023-05-20T11:15:40;7.70;;;7.10;;
11761;SDS011;5938;47.098;15.474;2023-05-20T11:19:45;8.93;;;8.00;;
11761;SDS011;5938;47.098;15.474;2023-05-20T11:23:50;8.03;;;7.43;;
11761;SDS011;5938;47.098;15.474;2023-05-20T11:27:54;7.83;;;7.10;;
11761;SDS011;5938;47.098;15.474;2023-05-20T11:31:59;9.20;;;7.60;;
11761;SDS011;5938;47.098;15.474;2023-05-20T11:36:03;10.80;;;7.60;;
11761;SDS011;5938;47.098;15.474;2023-05-20T11:40:22;7.47;;;6.77;;
11761;SDS011;5938;47.098;15.474;2023-05-20T11:44:33;8.70;;;7.90;;
11761;SDS011;5938;47.098;15.474;2023-05-20T11:48:38;7.53;;;6.87;;
11761;SDS011;5938;47.098;15.474;2023-05-20T11:52:58;8.47;;;7.77;;
11761;SDS011;5938;47.098;15.474;2023-05-20T11:57:04;8.47;;;7.80;;
11761;SDS011;5938;47.098;15.474;2023-05-20T12:01:08;7.73;;;7.13;;
11761;SDS011;5938;47.098;15.474;2023-05-20T12:05:24;8.93;;;8.13;;
11761;SDS011;5938;47.098;15.474;2023-05-20T12:09:28;9.20;;;8.40;;
11761;SDS011;5938;47.098;15.474;2023-05-20T12:13:32;8.83;;;8.03;;
11761;SDS011;5938;47.098;15.474;2023-05-20T12:17:43;7.97;;;7.27;;
11761;SDS011;5938;47.098;15.474;2023-05-20T12:21:50;8.13;;;7.53;;
11761;SDS011;5938;47.098;15.474;2023-05-20T12:25:54;8.07;;;7.47;;
11761;SDS011;5938;47.098;15.474;2023-05-20T12:29:57;8.00;;;7.30;;
11761;SDS011;5938;47.098;15.474;2023-05-20T12:34:01;7.80;;;7.10;;
11761;SDS011;5938;47.098;15.474;2023-05-20T12:38:07;7.77;;;7.17;;
11761;SDS011;5938;47.098;15.474;2023-05-20T12:42:11;8.10;;;7.40;;
11761;SDS011;5938;47.098;15.474;2023-05-20T12:46:15;7.50;;;6.90;;
11761;SDS011;5938;47.098;15.474;2023-05-20T12:50:19;8.00;;;7.30;;
11761;SDS011;5938;47.098;15.474;2023-05-20T12:54:24;8.70;;;7.97;;
11761;SDS011;5938;47.098;15.474;2023-05-20T12:58:28;8.40;;;7.70;;
11761;SDS011;5938;47.098;15.474;2023-05-20T13:02:32;8.13;;;7.37;;
11761;SDS011;5938;47.098;15.474;2023-05-20T13:06:43;7.37;;;6.67;;
11761;SDS011;5938;47.098;15.474;2023-05-20T13:10:48;8.60;;;7.90;;
11761;SDS011;5938;47.098;15.474;2023-05-20T13:14:52;7.20;;;6.70;;
11761;SDS011;5938;47.098;15.474;2023-05-20T13:18:56;8.63;;;7.93;;
11761;SDS011;5938;47.098;15.474;2023-05-20T13:22:59;12.97;;;8.00;;
11761;SDS011;5938;47.098;15.474;2023-05-20T13:27:05;7.70;;;7.10;;
11761;SDS011;5938;47.098;15.474;2023-05-20T13:31:08;8.30;;;7.47;;
11761;SDS011;5938;47.098;15.474;2023-05-20T13:35:12;7.30;;;6.80;;
11761;SDS011;5938;47.098;15.474;2023-05-20T13:39:17;7.00;;;6.50;;
11761;SDS011;5938;47.098;15.474;2023-05-20T13:43:22;7.70;;;7.10;;
11761;SDS011;5938;47.098;15.474;2023-05-20T13:47:26;7.27;;;6.67;;
11761;SDS011;5938;47.098;15.474;2023-05-20T13:51:30;9.20;;;7.40;;
11761;SDS011;5938;47.098;15.474;2023-05-20T13:55:34;7.23;;;6.70;;
11761;SDS011;5938;47.098;15.474;2023-05-20T13:59:39;8.50;;;7.70;;
11761;SDS011;5938;47.098;15.474;2023-05-20T14:03:44;8.80;;;8.00;;
11761;SDS011;5938;47.098;15.474;2023-05-20T14:07:47;8.93;;;8.23;;
11761;SDS011;5938;47.098;15.474;2023-05-20T14:11:51;6.53;;;6.03;;
11761;SDS011;5938;47.098;15.474;2023-05-20T14:15:56;7.67;;;7.03;;
11761;SDS011;5938;47.098;15.474;2023-05-20T14:19:59;8.83;;;8.03;;
11761;SDS011;5938;47.098;15.474;2023-05-20T14:24:03;8.13;;;7.50;;
11761;SDS011;5938;47.098;15.474;2023-05-20T14:28:07;7.63;;;6.93;;
11761;SDS011;5938;47.098;15.474;2023-05-20T14:32:12;7.77;;;7.17;;
11761;SDS011;5938;47.098;15.474;2023-05-20T14:36:16;8.00;;;7.40;;
11761;SDS011;5938;47.098;15.474;2023-05-20T14:40:19;7.03;;;6.43;;
11761;SDS011;5938;47.098;15.474;2023-05-20T14:44:23;7.80;;;7.10;;
11761;SDS011;5938;47.098;15.474;2023-05-20T14:48:28;7.90;;;7.30;;
11761;SDS011;5938;47.098;15.474;2023-05-20T14:52:32;9.07;;;8.30;;
11761;SDS011;5938;47.098;15.474;2023-05-20T14:56:36;8.97;;;8.17;;
11761;SDS011;5938;47.098;15.474;2023-05-20T15:00:40;9.00;;;8.07;;
11761;SDS011;5938;47.098;15.474;2023-05-20T15:04:46;9.50;;;8.50;;
11761;SDS011;5938;47.098;15.474;2023-05-20T15:08:50;7.27;;;6.67;;
11761;SDS011;5938;47.098;15.474;2023-05-20T15:12:54;7.00;;;6.50;;
11761;SDS011;5938;47.098;15.474;2023-05-20T15:16:58;8.10;;;7.40;;
11761;SDS011;5938;47.098;15.474;2023-05-20T15:21:03;8.33;;;7.43;;
11761;SDS011;5938;47.098;15.474;2023-05-20T15:25:07;9.20;;;8.47;;
11761;SDS011;5938;47.098;15.474;2023-05-20T15:29:11;8.33;;;7.73;;
11761;SDS011;5938;47.098;15.474;2023-05-20T15:33:14;9.07;;;8.17;;
11761;SDS011;5938;47.098;15.474;2023-05-20T15:37:19;8.70;;;7.90;;
11761;SDS011;5938;47.098;15.474;2023-05-20T15:41:23;9.83;;;7.93;;
11761;SDS011;5938;47.098;15.474;2023-05-20T15:45:26;8.53;;;7.63;;
11761;SDS011;5938;47.098;15.474;2023-05-20T15:49:30;9.00;;;8.30;;
11761;SDS011;5938;47.098;15.474;2023-05-20T15:53:35;9.00;;;8.20;;
11761;SDS011;5938;47.098;15.474;2023-05-20T15:57:41;10.57;;;8.83;;
11761;SDS011;5938;47.098;15.474;2023-05-20T16:01:45;9.87;;;9.07;;
11761;SDS011;5938;47.098;15.474;2023-05-20T16:05:48;10.80;;;9.80;;
11761;SDS011;5938;47.098;15.474;2023-05-20T16:09:54;8.77;;;8.07;;
11761;SDS011;5938;47.098;15.474;2023-05-20T16:13:57;16.97;;;11.30;;
11761;SDS011;5938;47.098;15.474;2023-05-20T16:18:02;13.73;;;11.10;;
11761;SDS011;5938;47.098;15.474;2023-05-20T16:22:05;14.73;;;13.33;;
11761;SDS011;5938;47.098;15.474;2023-05-20T16:26:11;15.90;;;14.27;;
11761;SDS011;5938;47.098;15.474;2023-05-20T16:30:15;14.63;;;13.17;;
11761;SDS011;5938;47.098;15.474;2023-05-20T16:34:27;14.77;;;13.30;;
11761;SDS011;5938;47.098;15.474;2023-05-20T16:38:31;18.27;;;15.30;;
11761;SDS011;5938;47.098;15.474;2023-05-20T16:42:39;17.70;;;15.47;;
11761;SDS011;5938;47.098;15.474;2023-05-20T16:46:46;17.63;;;14.70;;
11761;SDS011;5938;47.098;15.474;2023-05-20T16:50:50;19.90;;;16.30;;
11761;SDS011;5938;47.098;15.474;2023-05-20T16:54:55;16.93;;;15.10;;
11761;SDS011;5938;47.098;15.474;2023-05-20T16:59:05;18.40;;;16.47;;
11761;SDS011;5938;47.098;15.474;2023-05-20T17:03:09;19.23;;;16.60;;
11761;SDS011;5938;47.098;15.474;2023-05-20T17:07:13;18.53;;;16.53;;
11761;SDS011;5938;47.098;15.474;2023-05-20T17:11:16;16.47;;;14.83;;
11761;SDS011;5938;47.098;15.474;2023-05-20T17:15:21;18.93;;;17.10;;
11761;SDS011;5938;47.098;15.474;2023-05-20T17:19:26;18.63;;;14.90;;
11761;SDS011;5938;47.098;15.474;2023-05-20T17:23:30;18.57;;;16.67;;
11761;SDS011;5938;47.098;15.474;2023-05-20T17:27:34;15.87;;;14.30;;
11761;SDS011;5938;47.098;15.474;2023-05-20T17:31:39;15.63;;;13.97;;
11761;SDS011;5938;47.098;15.474;2023-05-20T17:35:43;16.17;;;14.60;;
11761;SDS011;5938;47.098;15.474;2023-05-20T17:39:47;16.53;;;14.43;;
11761;SDS011;5938;47.098;15.474;2023-05-20T17:43:51;18.57;;;15.60;;
11761;SDS011;5938;47.098;15.474;2023-05-20T17:47:58;16.83;;;15.13;;
11761;SDS011;5938;47.098;15.474;2023-05-20T17:52:02;16.33;;;14.33;;
11761;SDS011;5938;47.098;15.474;2023-05-20T17:56:07;18.70;;;15.70;;
11761;SDS011;5938;47.098;15.474;2023-05-20T18:00:13;15.93;;;14.23;;
11761;SDS011;5938;47.098;15.474;2023-05-20T18:04:24;16.03;;;14.37;;
11761;SDS011;5938;47.098;15.474;2023-05-20T18:08:29;18.33;;;16.40;;
11761;SDS011;5938;47.098;15.474;2023-05-20T18:12:34;17.13;;;15.30;;
11761;SDS011;5938;47.098;15.474;2023-05-20T18:16:38;19.10;;;17.10;;
11761;SDS011;5938;47.098;15.474;2023-05-20T18:20:44;18.07;;;16.27;;
11761;SDS011;5938;47.098;15.474;2023-05-20T18:24:48;18.97;;;16.97;;
11761;SDS011;5938;47.098;15.474;2023-05-20T18:28:52;20.20;;;18.10;;
11761;SDS011;5938;47.098;15.474;2023-05-20T18:32:57;20.03;;;18.07;;
11761;SDS011;5938;47.098;15.474;2023-05-20T18:37:03;20.00;;;17.47;;
11761;SDS011;5938;47.098;15.474;2023-05-20T18:41:07;20.10;;;17.60;;
11761;SDS011;5938;47.098;15.474;2023-05-20T18:45:12;20.53;;;18.53;;
11761;SDS011;5938;47.098;15.474;2023-05-20T18:49:16;21.20;;;17.57;;
11761;SDS011;5938;47.098;15.474;2023-05-20T18:53:22;20.43;;;18.27;;
11761;SDS011;5938;47.098;15.474;2023-05-20T18:57:26;21.03;;;18.57;;
11761;SDS011;5938;47.098;15.474;2023-05-20T19:01:31;21.87;;;19.40;;
11761;SDS011;5938;47.098;15.474;2023-05-20T19:05:37;31.63;;;22.10;;
11761;SDS011;5938;47.098;15.474;2023-05-20T19:09:43;22.07;;;19.53;;
11761;SDS011;5938;47.098;15.474;2023-05-20T19:13:47;23.70;;;19.60;;
11761;SDS011;5938;47.098;15.474;2023-05-20T19:17:52;21.20;;;19.00;;
11761;SDS011;5938;47.098;15.474;2023-05-20T19:21:56;24.07;;;20.47;;
11761;SDS011;5938;47.098;15.474;2023-05-20T19:26:02;21.37;;;19.30;;
11761;SDS011;5938;47.098;15.474;2023-05-20T19:30:07;20.70;;;18.50;;
11761;SDS011;5938;47.098;15.474;2023-05-20T19:34:12;19.97;;;17.87;;
11761;SDS011;5938;47.098;15.474;2023-05-20T19:38:17;23.20;;;19.00;;
11761;SDS011;5938;47.098;15.474;2023-05-20T19:42:25;19.70;;;17.20;;
11761;SDS011;5938;47.098;15.474;2023-05-20T19:46:29;19.30;;;17.40;;
11761;SDS011;5938;47.098;15.474;2023-05-20T19:50:34;20.67;;;18.47;;
11761;SDS011;5938;47.098;15.474;2023-05-20T19:54:38;22.40;;;20.00;;
11761;SDS011;5938;47.098;15.474;2023-05-20T19:58:45;24.30;;;19.60;;
11761;SDS011;5938;47.098;15.474;2023-05-20T20:02:49;25.53;;;20.47;;
11761;SDS011;5938;47.098;15.474;2023-05-20T20:06:54;21.33;;;18.17;;
11761;SDS011;5938;47.098;15.474;2023-05-20T20:10:58;22.53;;;19.90;;
11761;SDS011;5938;47.098;15.474;2023-05-20T20:15:06;21.30;;;18.00;;
11761;SDS011;5938;47.098;15.474;2023-05-20T20:19:11;20.70;;;18.60;;
11761;SDS011;5938;47.098;15.474;2023-05-20T20:23:21;19.00;;;17.00;;
11761;SDS011;5938;47.098;15.474;2023-05-20T20:27:25;19.97;;;17.83;;
11761;SDS011;5938;47.098;15.474;2023-05-20T20:31:32;18.53;;;16.70;;
11761;SDS011;5938;47.098;15.474;2023-05-20T20:35:40;19.90;;;17.77;;
11761;SDS011;5938;47.098;15.474;2023-05-20T20:39:47;20.20;;;17.30;;
11761;SDS011;5938;47.098;15.474;2023-05-20T20:43:52;21.87;;;18.07;;
11761;SDS011;5938;47.098;15.474;2023-05-20T20:47:59;21.83;;;18.67;;
11761;SDS011;5938;47.098;15.474;2023-05-20T20:52:06;18.50;;;16.07;;
11761;SDS011;5938;47.098;15.474;2023-05-20T20:56:11;22.93;;;17.90;;
11761;SDS011;5938;47.098;15.474;2023-05-20T21:00:18;25.23;;;19.33;;
11761;SDS011;5938;47.098;15.474;2023-05-20T21:04:25;19.17;;;17.17;;
11761;SDS011;5938;47.098;15.474;2023-05-20T21:08:28;25.50;;;20.93;;
11761;SDS011;5938;47.098;15.474;2023-05-20T21:12:32;27.30;;;21.47;;
11761;SDS011;5938;47.098;15.474;2023-05-20T21:16:36;21.70;;;19.50;;
11761;SDS011;5938;47.098;15.474;2023-05-20T21:20:41;23.37;;;20.83;;
11761;SDS011;5938;47.098;15.474;2023-05-20T21:24:45;21.97;;;19.57;;
11761;SDS011;5938;47.098;15.474;2023-05-20T21:28:49;20.77;;;18.57;;
11761;SDS011;5938;47.098;15.474;2023-05-20T21:32:53;19.17;;;16.93;;
11761;SDS011;5938;47.098;15.474;2023-05-20T21:36:58;20.40;;;17.50;;
11761;SDS011;5938;47.098;15.474;2023-05-20T21:41:02;23.00;;;18.80;;
11761;SDS011;5938;47.098;15.474;2023-05-20T21:45:06;20.93;;;16.83;;
11761;SDS011;5938;47.098;15.474;2023-05-20T21:49:10;19.93;;;17.83;;
11761;SDS011;5938;47.098;15.474;2023-05-20T21:53:16;22.77;;;18.60;;
11761;SDS011;5938;47.098;15.474;2023-05-20T21:57:19;21.23;;;18.23;;
11761;SDS011;5938;47.098;15.474;2023-05-20T22:01:23;20.63;;;17.60;;
11761;SDS011;5938;47.098;15.474;2023-05-20T22:05:26;19.23;;;17.23;;
11761;SDS011;5938;47.098;15.474;2023-05-20T22:09:31;22.13;;;16.87;;
11761;SDS011;5938;47.098;15.474;2023-05-20T22:13:35;21.37;;;18.30;;
11761;SDS011;5938;47.098;15.474;2023-05-20T22:17:41;21.40;;;17.73;;
11761;SDS011;5938;47.098;15.474;2023-05-20T22:21:48;23.40;;;17.60;;
11761;SDS011;5938;47.098;15.474;2023-05-20T22:25:53;19.67;;;16.90;;
11761;SDS011;5938;47.098;15.474;2023-05-20T22:29:56;22.50;;;17.93;;
11761;SDS011;5938;47.098;15.474;2023-05-20T22:34:00;19.70;;;16.57;;
11761;SDS011;5938;47.098;15.474;2023-05-20T22:38:05;21.10;;;17.50;;
11761;SDS011;5938;47.098;15.474;2023-05-20T22:42:10;21.53;;;18.10;;
11761;SDS011;5938;47.098;15.474;2023-05-20T22:46:13;25.70;;;19.10;;
11761;SDS011;5938;47.098;15.474;2023-05-20T22:50:17;19.90;;;17.27;;
11761;SDS011;5938;47.098;15.474;2023-05-20T22:54:20;20.93;;;17.27;;
11761;SDS011;5938;47.098;15.474;2023-05-20T22:58:25;19.63;;;17.73;;
11761;SDS011;5938;47.098;15.474;2023-05-20T23:02:29;17.37;;;15.47;;
11761;SDS011;5938;47.098;15.474;2023-05-20T23:06:33;20.20;;;16.70;;
11761;SDS011;5938;47.098;15.474;2023-05-20T23:10:38;21.77;;;17.13;;
11761;SDS011;5938;47.098;15.474;2023-05-20T23:14:43;20.63;;;17.43;;
11761;SDS011;5938;47.098;15.474;2023-05-20T23:18:47;22.43;;;16.33;;
11761;SDS011;5938;47.098;15.474;2023-05-20T23:22:50;18.03;;;16.13;;
11761;SDS011;5938;47.098;15.474;2023-05-20T23:26:54;18.53;;;15.90;;
11761;SDS011;5938;47.098;15.474;2023-05-20T23:31:01;18.27;;;15.17;;
11761;SDS011;5938;47.098;15.474;2023-05-20T23:35:05;20.70;;;16.93;;
11761;SDS011;5938;47.098;15.474;2023-05-20T23:39:12;20.80;;;16.83;;
11761;SDS011;5938;47.098;15.474;2023-05-20T23:43:18;24.47;;;16.73;;
11761;SDS011;5938;47.098;15.474;2023-05-20T23:47:23;21.10;;;17.33;;
11761;SDS011;5938;47.098;15.474;2023-05-20T23:51:30;22.50;;;16.23;;
11761;SDS011;5938;47.098;15.474;2023-05-20T23:55:36;17.47;;;14.93;;
11761;SDS011;5938;47.098;15.474;2023-05-20T23:59:39;34.03;;;16.97;;
